หน้าหลัก
METAR-TAF:

METAR-TAF

ท่าอากาศยาน :

Clines Corners, นิวเม็กซิโก, สหรัฐอเมริกา

ละติจูด: 35-00N, ลองจิจูด: 105-40W, ความสูง: 2160 ม.

การสังเกตสภาพอากาศปัจจุบัน

รายงานได้ทำขึ้นเมื่อ 54 นาทีที่แล้ว ณ เวลา 06:53 UTC
ลม 17 นอตจากตะวันตก
อุณหภูมิ 13°C
ความชื้น 26%
ความกดอากาศ 1017 hPa
ทัศนวิสัย: 16.1 กม.
ท้องฟ้าแจ่มใส

METAR: KCQC 260653Z AUTO 27017KT 10SM CLR 13/M06 A3004 RMK AO2 SLP080 T01281056 402440078

เวลา: 01:47 (07:47 UTC)


TAF: หายไป

สังเกตการณ์สภาพอากาศและพยากรณ์อากาศของสนามบินมากกว่า 4000 แห่ง (รายงาน METAR และ TAF).

สถานีที่ดูได้จะแสดงไว้ด้วยจุดสีเหลืองและสีแดงบนแผนที่.

เลื่อนเมาส์ไปเหนือจุดเพื่อดูชื่อสถานี.

แล้วคลิกเพื่อดูสังเกตการณ์และการพยากรณ์สภาพอากาศ.

ในการเปลี่ยนแผนที่: คลิกที่ปุ่มสีเขียวที่มีกากบาทสีดำเพื่อซูมเข้า; ที่ปุ่มสีเขียวที่มีขีดเพื่อซูมออก; หรือที่ลูกศรสีเขียวเพื่อไปยังแผนที่ที่อยู่ติดกัน.


METAR-TAF: